sensor_id;sensor_type;location;lat;lon;timestamp;P1;durP1;ratioP1;P2;durP2;ratioP2
13368;SDS011;6753;52.520;13.450;2023-01-19T00:00:08;1183.10;;;988.33;;
13368;SDS011;6753;52.520;13.450;2023-01-19T00:00:21;1188.03;;;988.92;;
13368;SDS011;6753;52.520;13.450;2023-01-19T00:00:31;1188.93;;;989.43;;
13368;SDS011;6753;52.520;13.450;2023-01-19T00:00:42;1187.70;;;989.38;;
13368;SDS011;6753;52.520;13.450;2023-01-19T00:00:53;1190.10;;;988.42;;
13368;SDS011;6753;52.520;13.450;2023-01-19T00:01:04;1189.10;;;988.30;;
13368;SDS011;6753;52.520;13.450;2023-01-19T00:01:14;1190.65;;;989.35;;
13368;SDS011;6753;52.520;13.450;2023-01-19T00:01:25;1196.25;;;990.92;;
13368;SDS011;6753;52.520;13.450;2023-01-19T00:01:36;1198.53;;;990.15;;
13368;SDS011;6753;52.520;13.450;2023-01-19T00:01:48;1198.72;;;989.08;;
13368;SDS011;6753;52.520;13.450;2023-01-19T00:01:59;1194.88;;;988.83;;
13368;SDS011;6753;52.520;13.450;2023-01-19T00:02:09;1198.20;;;989.40;;
13368;SDS011;6753;52.520;13.450;2023-01-19T00:02:20;1196.20;;;988.35;;
13368;SDS011;6753;52.520;13.450;2023-01-19T00:02:31;1192.22;;;988.13;;
13368;SDS011;6753;52.520;13.450;2023-01-19T00:02:42;1190.10;;;988.47;;
13368;SDS011;6753;52.520;13.450;2023-01-19T00:02:56;1185.85;;;987.55;;
13368;SDS011;6753;52.520;13.450;2023-01-19T00:03:07;1183.40;;;986.95;;
13368;SDS011;6753;52.520;13.450;2023-01-19T00:03:25;1181.80;;;986.75;;
13368;SDS011;6753;52.520;13.450;2023-01-19T00:03:36;1183.10;;;985.95;;
13368;SDS011;6753;52.520;13.450;2023-01-19T00:03:47;1186.60;;;986.63;;
13368;SDS011;6753;52.520;13.450;2023-01-19T00:03:58;1188.00;;;986.97;;
13368;SDS011;6753;52.520;13.450;2023-01-19T00:04:09;1187.90;;;985.90;;
13368;SDS011;6753;52.520;13.450;2023-01-19T00:04:19;1187.57;;;986.28;;
13368;SDS011;6753;52.520;13.450;2023-01-19T00:04:30;1186.97;;;987.53;;
13368;SDS011;6753;52.520;13.450;2023-01-19T00:04:41;1184.17;;;988.23;;
13368;SDS011;6753;52.520;13.450;2023-01-19T00:04:51;1183.38;;;988.92;;
13368;SDS011;6753;52.520;13.450;2023-01-19T00:05:03;1181.85;;;990.25;;
13368;SDS011;6753;52.520;13.450;2023-01-19T00:05:15;1185.03;;;991.67;;
13368;SDS011;6753;52.520;13.450;2023-01-19T00:05:26;1186.80;;;991.60;;
13368;SDS011;6753;52.520;13.450;2023-01-19T00:05:36;1189.05;;;990.63;;
13368;SDS011;6753;52.520;13.450;2023-01-19T00:05:47;1189.40;;;992.00;;
13368;SDS011;6753;52.520;13.450;2023-01-19T00:05:59;1191.45;;;992.85;;
13368;SDS011;6753;52.520;13.450;2023-01-19T00:06:15;1191.65;;;992.28;;
13368;SDS011;6753;52.520;13.450;2023-01-19T00:06:26;1193.90;;;992.25;;
13368;SDS011;6753;52.520;13.450;2023-01-19T00:06:36;1196.88;;;992.50;;
13368;SDS011;6753;52.520;13.450;2023-01-19T00:06:48;1199.60;;;992.80;;
13368;SDS011;6753;52.520;13.450;2023-01-19T00:06:59;1202.10;;;993.10;;
13368;SDS011;6753;52.520;13.450;2023-01-19T00:07:12;1202.75;;;992.78;;
13368;SDS011;6753;52.520;13.450;2023-01-19T00:07:23;1200.72;;;994.40;;
13368;SDS011;6753;52.520;13.450;2023-01-19T00:07:34;1201.32;;;994.83;;
13368;SDS011;6753;52.520;13.450;2023-01-19T00:07:45;1199.07;;;994.60;;
13368;SDS011;6753;52.520;13.450;2023-01-19T00:07:56;1196.95;;;993.88;;
13368;SDS011;6753;52.520;13.450;2023-01-19T00:08:23;1194.10;;;993.67;;
13368;SDS011;6753;52.520;13.450;2023-01-19T00:08:34;1191.30;;;992.67;;
13368;SDS011;6753;52.520;13.450;2023-01-19T00:08:46;1189.95;;;992.30;;
13368;SDS011;6753;52.520;13.450;2023-01-19T00:08:59;1188.93;;;991.88;;
13368;SDS011;6753;52.520;13.450;2023-01-19T00:09:10;1187.50;;;991.35;;
13368;SDS011;6753;52.520;13.450;2023-01-19T00:09:20;1188.63;;;991.70;;
13368;SDS011;6753;52.520;13.450;2023-01-19T00:09:32;1192.05;;;993.00;;
13368;SDS011;6753;52.520;13.450;2023-01-19T00:09:42;1193.30;;;992.87;;
13368;SDS011;6753;52.520;13.450;2023-01-19T00:09:53;1194.47;;;993.22;;
13368;SDS011;6753;52.520;13.450;2023-01-19T00:10:04;1195.15;;;994.25;;
13368;SDS011;6753;52.520;13.450;2023-01-19T00:10:17;1199.68;;;994.97;;
13368;SDS011;6753;52.520;13.450;2023-01-19T00:10:28;1199.15;;;995.88;;
13368;SDS011;6753;52.520;13.450;2023-01-19T00:10:39;1204.15;;;997.53;;
13368;SDS011;6753;52.520;13.450;2023-01-19T00:10:50;1207.03;;;998.20;;
13368;SDS011;6753;52.520;13.450;2023-01-19T00:11:01;1208.70;;;997.83;;
13368;SDS011;6753;52.520;13.450;2023-01-19T00:11:12;1209.97;;;998.25;;
13368;SDS011;6753;52.520;13.450;2023-01-19T00:11:22;1212.55;;;999.38;;
13368;SDS011;6753;52.520;13.450;2023-01-19T00:11:33;1212.18;;;998.38;;
13368;SDS011;6753;52.520;13.450;2023-01-19T00:11:45;1209.75;;;998.45;;
13368;SDS011;6753;52.520;13.450;2023-01-19T00:11:56;1208.10;;;998.20;;
13368;SDS011;6753;52.520;13.450;2023-01-19T00:12:06;1205.72;;;997.88;;
13368;SDS011;6753;52.520;13.450;2023-01-19T00:12:17;1203.85;;;997.13;;
13368;SDS011;6753;52.520;13.450;2023-01-19T00:12:28;1203.22;;;996.72;;
13368;SDS011;6753;52.520;13.450;2023-01-19T00:12:39;1202.55;;;996.95;;
13368;SDS011;6753;52.520;13.450;2023-01-19T00:12:50;1202.17;;;997.30;;
13368;SDS011;6753;52.520;13.450;2023-01-19T00:13:00;1201.13;;;997.08;;
13368;SDS011;6753;52.520;13.450;2023-01-19T00:13:11;1206.57;;;998.30;;
13368;SDS011;6753;52.520;13.450;2023-01-19T00:13:24;1204.72;;;998.83;;
13368;SDS011;6753;52.520;13.450;2023-01-19T00:13:35;1204.15;;;998.67;;
13368;SDS011;6753;52.520;13.450;2023-01-19T00:13:46;1203.53;;;998.13;;
13368;SDS011;6753;52.520;13.450;2023-01-19T00:13:59;1202.57;;;998.63;;
13368;SDS011;6753;52.520;13.450;2023-01-19T00:14:10;1201.03;;;997.80;;
13368;SDS011;6753;52.520;13.450;2023-01-19T00:14:21;1201.72;;;997.35;;
13368;SDS011;6753;52.520;13.450;2023-01-19T00:14:32;1200.45;;;996.72;;
13368;SDS011;6753;52.520;13.450;2023-01-19T00:14:43;1201.05;;;995.75;;
13368;SDS011;6753;52.520;13.450;2023-01-19T00:14:54;1202.03;;;994.80;;
13368;SDS011;6753;52.520;13.450;2023-01-19T00:15:05;1202.40;;;994.75;;
13368;SDS011;6753;52.520;13.450;2023-01-19T00:15:17;1200.93;;;993.55;;
13368;SDS011;6753;52.520;13.450;2023-01-19T00:15:27;1200.80;;;994.15;;
13368;SDS011;6753;52.520;13.450;2023-01-19T00:15:38;1202.85;;;995.53;;
13368;SDS011;6753;52.520;13.450;2023-01-19T00:15:49;1200.03;;;997.50;;
13368;SDS011;6753;52.520;13.450;2023-01-19T00:16:01;1197.20;;;997.00;;
13368;SDS011;6753;52.520;13.450;2023-01-19T00:16:11;1197.35;;;997.35;;
13368;SDS011;6753;52.520;13.450;2023-01-19T00:16:22;1193.40;;;996.70;;
13368;SDS011;6753;52.520;13.450;2023-01-19T00:16:33;1186.57;;;994.10;;
13368;SDS011;6753;52.520;13.450;2023-01-19T00:16:44;1182.57;;;991.15;;
13368;SDS011;6753;52.520;13.450;2023-01-19T00:16:54;1182.20;;;989.92;;
13368;SDS011;6753;52.520;13.450;2023-01-19T00:17:05;1182.97;;;989.37;;
13368;SDS011;6753;52.520;13.450;2023-01-19T00:17:16;1183.25;;;988.90;;
13368;SDS011;6753;52.520;13.450;2023-01-19T00:17:28;1188.07;;;990.38;;
13368;SDS011;6753;52.520;13.450;2023-01-19T00:17:39;1192.07;;;992.55;;
13368;SDS011;6753;52.520;13.450;2023-01-19T00:17:50;1192.07;;;992.85;;
13368;SDS011;6753;52.520;13.450;2023-01-19T00:18:00;1192.00;;;994.63;;
13368;SDS011;6753;52.520;13.450;2023-01-19T00:18:11;1191.88;;;995.83;;
13368;SDS011;6753;52.520;13.450;2023-01-19T00:18:22;1190.68;;;995.97;;
13368;SDS011;6753;52.520;13.450;2023-01-19T00:18:33;1185.32;;;994.88;;
13368;SDS011;6753;52.520;13.450;2023-01-19T00:18:43;1186.30;;;994.63;;
13368;SDS011;6753;52.520;13.450;2023-01-19T00:18:55;1188.32;;;993.40;;
13368;SDS011;6753;52.520;13.450;2023-01-19T00:19:06;1187.03;;;992.65;;
13368;SDS011;6753;52.520;13.450;2023-01-19T00:19:17;1184.25;;;991.10;;
13368;SDS011;6753;52.520;13.450;2023-01-19T00:19:28;1185.90;;;990.15;;
13368;SDS011;6753;52.520;13.450;2023-01-19T00:19:39;1187.55;;;990.88;;
13368;SDS011;6753;52.520;13.450;2023-01-19T00:19:50;1185.40;;;991.95;;
13368;SDS011;6753;52.520;13.450;2023-01-19T00:20:00;1187.20;;;992.40;;
13368;SDS011;6753;52.520;13.450;2023-01-19T00:20:12;1189.68;;;992.92;;
13368;SDS011;6753;52.520;13.450;2023-01-19T00:20:24;1189.70;;;993.65;;
13368;SDS011;6753;52.520;13.450;2023-01-19T00:20:35;1193.90;;;992.80;;
13368;SDS011;6753;52.520;13.450;2023-01-19T00:20:46;1197.90;;;993.65;;
13368;SDS011;6753;52.520;13.450;2023-01-19T00:20:57;1202.00;;;995.22;;
13368;SDS011;6753;52.520;13.450;2023-01-19T00:21:08;1200.53;;;996.20;;
13368;SDS011;6753;52.520;13.450;2023-01-19T00:21:19;1204.35;;;996.65;;
13368;SDS011;6753;52.520;13.450;2023-01-19T00:21:30;1205.93;;;998.97;;
13368;SDS011;6753;52.520;13.450;2023-01-19T00:21:42;1203.20;;;998.87;;
13368;SDS011;6753;52.520;13.450;2023-01-19T00:21:54;1200.10;;;996.85;;
13368;SDS011;6753;52.520;13.450;2023-01-19T00:22:05;1200.70;;;995.90;;
13368;SDS011;6753;52.520;13.450;2023-01-19T00:22:16;1200.70;;;996.08;;
13368;SDS011;6753;52.520;13.450;2023-01-19T00:22:27;1203.50;;;997.33;;
13368;SDS011;6753;52.520;13.450;2023-01-19T00:22:37;1205.03;;;997.10;;
13368;SDS011;6753;52.520;13.450;2023-01-19T00:22:48;1208.15;;;998.10;;
13368;SDS011;6753;52.520;13.450;2023-01-19T00:23:00;1207.80;;;999.45;;
13368;SDS011;6753;52.520;13.450;2023-01-19T00:23:11;1203.40;;;997.92;;
13368;SDS011;6753;52.520;13.450;2023-01-19T00:23:22;1199.38;;;995.83;;
13368;SDS011;6753;52.520;13.450;2023-01-19T00:23:34;1191.50;;;992.35;;
13368;SDS011;6753;52.520;13.450;2023-01-19T00:23:44;1182.20;;;988.28;;
13368;SDS011;6753;52.520;13.450;2023-01-19T00:23:56;1173.60;;;983.20;;
13368;SDS011;6753;52.520;13.450;2023-01-19T00:24:07;1166.38;;;979.88;;
13368;SDS011;6753;52.520;13.450;2023-01-19T00:24:19;1167.10;;;979.78;;
13368;SDS011;6753;52.520;13.450;2023-01-19T00:24:29;1166.13;;;980.67;;
13368;SDS011;6753;52.520;13.450;2023-01-19T00:24:41;1167.97;;;981.25;;
13368;SDS011;6753;52.520;13.450;2023-01-19T00:24:53;1171.95;;;983.17;;
13368;SDS011;6753;52.520;13.450;2023-01-19T00:25:04;1173.00;;;983.55;;
13368;SDS011;6753;52.520;13.450;2023-01-19T00:25:15;1168.32;;;981.60;;
13368;SDS011;6753;52.520;13.450;2023-01-19T00:25:26;1162.15;;;979.85;;
13368;SDS011;6753;52.520;13.450;2023-01-19T00:25:37;1161.30;;;978.75;;
13368;SDS011;6753;52.520;13.450;2023-01-19T00:25:51;1158.25;;;978.13;;
13368;SDS011;6753;52.520;13.450;2023-01-19T00:26:02;1162.18;;;978.85;;
13368;SDS011;6753;52.520;13.450;2023-01-19T00:26:14;1168.57;;;981.28;;
13368;SDS011;6753;52.520;13.450;2023-01-19T00:26:25;1175.18;;;982.40;;
13368;SDS011;6753;52.520;13.450;2023-01-19T00:26:36;1178.57;;;983.80;;
13368;SDS011;6753;52.520;13.450;2023-01-19T00:26:49;1170.75;;;981.80;;
13368;SDS011;6753;52.520;13.450;2023-01-19T00:27:00;1159.63;;;977.92;;
13368;SDS011;6753;52.520;13.450;2023-01-19T00:27:13;1144.88;;;971.45;;
13368;SDS011;6753;52.520;13.450;2023-01-19T00:27:23;1137.80;;;967.07;;
13368;SDS011;6753;52.520;13.450;2023-01-19T00:27:35;1128.70;;;963.72;;
13368;SDS011;6753;52.520;13.450;2023-01-19T00:27:46;1128.78;;;962.30;;
13368;SDS011;6753;52.520;13.450;2023-01-19T00:27:58;1127.88;;;961.22;;
13368;SDS011;6753;52.520;13.450;2023-01-19T00:28:09;1122.25;;;959.03;;
13368;SDS011;6753;52.520;13.450;2023-01-19T00:28:21;1118.28;;;957.63;;
13368;SDS011;6753;52.520;13.450;2023-01-19T00:28:31;1111.85;;;955.90;;
13368;SDS011;6753;52.520;13.450;2023-01-19T00:28:42;1112.65;;;954.60;;
13368;SDS011;6753;52.520;13.450;2023-01-19T00:28:54;1112.88;;;954.67;;
13368;SDS011;6753;52.520;13.450;2023-01-19T00:29:05;1117.10;;;957.10;;
13368;SDS011;6753;52.520;13.450;2023-01-19T00:29:16;1125.57;;;960.10;;
13368;SDS011;6753;52.520;13.450;2023-01-19T00:29:27;1132.18;;;960.88;;
13368;SDS011;6753;52.520;13.450;2023-01-19T00:29:39;1135.03;;;962.15;;
13368;SDS011;6753;52.520;13.450;2023-01-19T00:29:50;1136.32;;;964.10;;
13368;SDS011;6753;52.520;13.450;2023-01-19T00:30:02;1137.78;;;965.50;;
13368;SDS011;6753;52.520;13.450;2023-01-19T00:30:13;1136.72;;;965.67;;
13368;SDS011;6753;52.520;13.450;2023-01-19T00:30:24;1136.95;;;967.58;;
13368;SDS011;6753;52.520;13.450;2023-01-19T00:30:35;1134.03;;;967.50;;
13368;SDS011;6753;52.520;13.450;2023-01-19T00:30:46;1132.32;;;965.20;;
13368;SDS011;6753;52.520;13.450;2023-01-19T00:30:59;1127.88;;;964.08;;
13368;SDS011;6753;52.520;13.450;2023-01-19T00:31:10;1125.82;;;962.25;;
13368;SDS011;6753;52.520;13.450;2023-01-19T00:31:21;1130.00;;;964.03;;
13368;SDS011;6753;52.520;13.450;2023-01-19T00:31:33;1137.32;;;966.17;;
13368;SDS011;6753;52.520;13.450;2023-01-19T00:31:44;1145.82;;;971.13;;
13368;SDS011;6753;52.520;13.450;2023-01-19T00:31:54;1155.88;;;976.08;;
13368;SDS011;6753;52.520;13.450;2023-01-19T00:32:05;1167.10;;;980.30;;
13368;SDS011;6753;52.520;13.450;2023-01-19T00:32:16;1168.73;;;980.83;;
13368;SDS011;6753;52.520;13.450;2023-01-19T00:32:28;1165.68;;;979.08;;
13368;SDS011;6753;52.520;13.450;2023-01-19T00:32:39;1166.20;;;978.50;;
13368;SDS011;6753;52.520;13.450;2023-01-19T00:32:50;1162.40;;;976.38;;
13368;SDS011;6753;52.520;13.450;2023-01-19T00:33:01;1160.80;;;975.63;;
13368;SDS011;6753;52.520;13.450;2023-01-19T00:33:15;1158.07;;;976.70;;
13368;SDS011;6753;52.520;13.450;2023-01-19T00:33:26;1159.10;;;977.85;;
13368;SDS011;6753;52.520;13.450;2023-01-19T00:33:37;1155.28;;;975.83;;
13368;SDS011;6753;52.520;13.450;2023-01-19T00:33:48;1154.32;;;976.22;;
13368;SDS011;6753;52.520;13.450;2023-01-19T00:34:00;1153.30;;;976.88;;
13368;SDS011;6753;52.520;13.450;2023-01-19T00:34:11;1152.95;;;975.80;;
13368;SDS011;6753;52.520;13.450;2023-01-19T00:34:22;1152.90;;;974.27;;
13368;SDS011;6753;52.520;13.450;2023-01-19T00:34:33;1154.63;;;976.05;;
13368;SDS011;6753;52.520;13.450;2023-01-19T00:34:48;1155.75;;;975.88;;
13368;SDS011;6753;52.520;13.450;2023-01-19T00:35:01;1157.28;;;975.85;;
13368;SDS011;6753;52.520;13.450;2023-01-19T00:35:12;1158.47;;;978.67;;
13368;SDS011;6753;52.520;13.450;2023-01-19T00:35:22;1160.20;;;980.22;;
13368;SDS011;6753;52.520;13.450;2023-01-19T00:35:33;1160.80;;;980.87;;
13368;SDS011;6753;52.520;13.450;2023-01-19T00:35:49;1160.32;;;982.38;;
13368;SDS011;6753;52.520;13.450;2023-01-19T00:36:00;1159.18;;;980.08;;
13368;SDS011;6753;52.520;13.450;2023-01-19T00:36:12;1158.45;;;976.80;;
13368;SDS011;6753;52.520;13.450;2023-01-19T00:36:22;1157.10;;;975.60;;
13368;SDS011;6753;52.520;13.450;2023-01-19T00:36:33;1158.03;;;975.35;;
13368;SDS011;6753;52.520;13.450;2023-01-19T00:36:44;1157.35;;;973.53;;
13368;SDS011;6753;52.520;13.450;2023-01-19T00:36:56;1158.55;;;973.75;;
13368;SDS011;6753;52.520;13.450;2023-01-19T00:37:07;1157.13;;;974.83;;
13368;SDS011;6753;52.520;13.450;2023-01-19T00:37:18;1155.13;;;974.47;;
13368;SDS011;6753;52.520;13.450;2023-01-19T00:37:28;1158.30;;;975.80;;
13368;SDS011;6753;52.520;13.450;2023-01-19T00:37:40;1161.18;;;976.78;;
13368;SDS011;6753;52.520;13.450;2023-01-19T00:37:54;1162.13;;;977.58;;
13368;SDS011;6753;52.520;13.450;2023-01-19T00:38:05;1163.75;;;978.58;;
13368;SDS011;6753;52.520;13.450;2023-01-19T00:38:16;1168.25;;;981.33;;
13368;SDS011;6753;52.520;13.450;2023-01-19T00:38:27;1167.97;;;982.30;;
13368;SDS011;6753;52.520;13.450;2023-01-19T00:38:38;1168.30;;;981.22;;
13368;SDS011;6753;52.520;13.450;2023-01-19T00:38:50;1166.97;;;980.30;;
13368;SDS011;6753;52.520;13.450;2023-01-19T00:39:00;1166.75;;;978.05;;
13368;SDS011;6753;52.520;13.450;2023-01-19T00:39:11;1163.65;;;975.83;;
13368;SDS011;6753;52.520;13.450;2023-01-19T00:39:22;1159.00;;;974.13;;
13368;SDS011;6753;52.520;13.450;2023-01-19T00:39:33;1154.90;;;971.95;;
13368;SDS011;6753;52.520;13.450;2023-01-19T00:39:43;1157.00;;;972.17;;
13368;SDS011;6753;52.520;13.450;2023-01-19T00:39:54;1159.20;;;973.85;;
13368;SDS011;6753;52.520;13.450;2023-01-19T00:40:06;1160.50;;;974.93;;
13368;SDS011;6753;52.520;13.450;2023-01-19T00:40:17;1165.25;;;976.67;;
13368;SDS011;6753;52.520;13.450;2023-01-19T00:40:29;1198.32;;;991.28;;
13368;SDS011;6753;52.520;13.450;2023-01-19T00:40:40;1215.75;;;999.70;;
13368;SDS011;6753;52.520;13.450;2023-01-19T00:40:51;1218.50;;;999.90;;
13368;SDS011;6753;52.520;13.450;2023-01-19T00:41:01;1218.72;;;999.90;;
13368;SDS011;6753;52.520;13.450;2023-01-19T00:41:12;1221.30;;;999.90;;
13368;SDS011;6753;52.520;13.450;2023-01-19T00:41:23;1204.43;;;996.27;;
13368;SDS011;6753;52.520;13.450;2023-01-19T00:41:49;1180.63;;;986.30;;
13368;SDS011;6753;52.520;13.450;2023-01-19T00:42:18;1186.35;;;987.92;;
13368;SDS011;6753;52.520;13.450;2023-01-19T00:42:47;1190.05;;;990.00;;
13368;SDS011;6753;52.520;13.450;2023-01-19T00:42:59;1189.68;;;990.65;;
13368;SDS011;6753;52.520;13.450;2023-01-19T00:43:09;1191.70;;;993.08;;
13368;SDS011;6753;52.520;13.450;2023-01-19T00:43:20;1191.43;;;995.50;;
13368;SDS011;6753;52.520;13.450;2023-01-19T00:43:31;1189.47;;;994.80;;
13368;SDS011;6753;52.520;13.450;2023-01-19T00:43:42;1187.32;;;993.58;;
13368;SDS011;6753;52.520;13.450;2023-01-19T00:43:53;1183.03;;;992.75;;
13368;SDS011;6753;52.520;13.450;2023-01-19T00:44:03;1182.53;;;992.30;;
13368;SDS011;6753;52.520;13.450;2023-01-19T00:44:14;1180.93;;;990.75;;
13368;SDS011;6753;52.520;13.450;2023-01-19T00:44:25;1176.72;;;988.22;;
13368;SDS011;6753;52.520;13.450;2023-01-19T00:44:36;1171.88;;;987.42;;
13368;SDS011;6753;52.520;13.450;2023-01-19T00:44:46;1171.47;;;986.93;;
13368;SDS011;6753;52.520;13.450;2023-01-19T00:44:57;1170.28;;;985.88;;
13368;SDS011;6753;52.520;13.450;2023-01-19T00:45:10;1168.25;;;983.95;;
13368;SDS011;6753;52.520;13.450;2023-01-19T00:45:22;1166.85;;;981.72;;
13368;SDS011;6753;52.520;13.450;2023-01-19T00:45:33;1171.20;;;982.00;;
13368;SDS011;6753;52.520;13.450;2023-01-19T00:45:44;1168.88;;;981.65;;
13368;SDS011;6753;52.520;13.450;2023-01-19T00:45:55;1167.90;;;980.25;;
13368;SDS011;6753;52.520;13.450;2023-01-19T00:46:06;1169.97;;;981.10;;
13368;SDS011;6753;52.520;13.450;2023-01-19T00:46:16;1170.23;;;981.50;;
13368;SDS011;6753;52.520;13.450;2023-01-19T00:46:28;1168.35;;;982.55;;
13368;SDS011;6753;52.520;13.450;2023-01-19T00:46:39;1163.88;;;981.60;;
13368;SDS011;6753;52.520;13.450;2023-01-19T00:46:49;1162.30;;;980.53;;
13368;SDS011;6753;52.520;13.450;2023-01-19T00:47:00;1158.05;;;978.03;;
13368;SDS011;6753;52.520;13.450;2023-01-19T00:47:13;1150.47;;;974.28;;
13368;SDS011;6753;52.520;13.450;2023-01-19T00:47:24;1145.53;;;972.20;;
13368;SDS011;6753;52.520;13.450;2023-01-19T00:47:35;1144.90;;;971.78;;
13368;SDS011;6753;52.520;13.450;2023-01-19T00:47:46;1142.72;;;971.63;;
13368;SDS011;6753;52.520;13.450;2023-01-19T00:47:59;1143.38;;;972.13;;
13368;SDS011;6753;52.520;13.450;2023-01-19T00:48:10;1144.27;;;973.93;;
13368;SDS011;6753;52.520;13.450;2023-01-19T00:48:20;1146.43;;;972.75;;
13368;SDS011;6753;52.520;13.450;2023-01-19T00:48:31;1147.90;;;972.35;;
13368;SDS011;6753;52.520;13.450;2023-01-19T00:48:42;1147.57;;;971.53;;
13368;SDS011;6753;52.520;13.450;2023-01-19T00:48:53;1150.22;;;971.20;;
13368;SDS011;6753;52.520;13.450;2023-01-19T00:49:04;1151.90;;;971.47;;
13368;SDS011;6753;52.520;13.450;2023-01-19T00:49:16;1149.37;;;971.00;;
13368;SDS011;6753;52.520;13.450;2023-01-19T00:49:27;1146.45;;;969.83;;
13368;SDS011;6753;52.520;13.450;2023-01-19T00:49:38;1143.97;;;968.03;;
13368;SDS011;6753;52.520;13.450;2023-01-19T00:49:49;1139.05;;;966.92;;
13368;SDS011;6753;52.520;13.450;2023-01-19T00:49:59;1138.35;;;965.10;;
13368;SDS011;6753;52.520;13.450;2023-01-19T00:50:11;1133.28;;;963.35;;
13368;SDS011;6753;52.520;13.450;2023-01-19T00:50:22;1131.60;;;963.30;;
13368;SDS011;6753;52.520;13.450;2023-01-19T00:50:34;1133.95;;;962.95;;
13368;SDS011;6753;52.520;13.450;2023-01-19T00:50:46;1133.15;;;963.65;;
13368;SDS011;6753;52.520;13.450;2023-01-19T00:50:58;1132.63;;;963.75;;
13368;SDS011;6753;52.520;13.450;2023-01-19T00:51:09;1132.57;;;964.20;;
13368;SDS011;6753;52.520;13.450;2023-01-19T00:51:19;1133.05;;;964.42;;
13368;SDS011;6753;52.520;13.450;2023-01-19T00:51:30;1130.10;;;963.87;;
13368;SDS011;6753;52.520;13.450;2023-01-19T00:51:41;1126.60;;;962.53;;
13368;SDS011;6753;52.520;13.450;2023-01-19T00:51:52;1125.07;;;961.97;;
13368;SDS011;6753;52.520;13.450;2023-01-19T00:52:04;1121.68;;;961.75;;
13368;SDS011;6753;52.520;13.450;2023-01-19T00:52:15;1118.53;;;960.35;;
13368;SDS011;6753;52.520;13.450;2023-01-19T00:52:27;1121.05;;;960.85;;
13368;SDS011;6753;52.520;13.450;2023-01-19T00:52:37;1122.67;;;962.73;;
13368;SDS011;6753;52.520;13.450;2023-01-19T00:52:50;1119.47;;;961.97;;
13368;SDS011;6753;52.520;13.450;2023-01-19T00:53:02;1117.22;;;959.67;;
13368;SDS011;6753;52.520;13.450;2023-01-19T00:53:13;1118.10;;;960.55;;
13368;SDS011;6753;52.520;13.450;2023-01-19T00:53:24;1117.65;;;960.45;;
13368;SDS011;6753;52.520;13.450;2023-01-19T00:53:34;1112.82;;;959.17;;
13368;SDS011;6753;52.520;13.450;2023-01-19T00:53:46;1114.65;;;960.28;;
13368;SDS011;6753;52.520;13.450;2023-01-19T00:53:57;1114.82;;;960.53;;
13368;SDS011;6753;52.520;13.450;2023-01-19T00:54:13;1113.38;;;959.20;;
13368;SDS011;6753;52.520;13.450;2023-01-19T00:54:24;1116.47;;;959.13;;
13368;SDS011;6753;52.520;13.450;2023-01-19T00:54:35;1117.05;;;958.75;;
13368;SDS011;6753;52.520;13.450;2023-01-19T00:54:46;1114.45;;;956.92;;
13368;SDS011;6753;52.520;13.450;2023-01-19T00:54:56;1113.67;;;957.03;;
13368;SDS011;6753;52.520;13.450;2023-01-19T00:55:08;1110.97;;;956.97;;
13368;SDS011;6753;52.520;13.450;2023-01-19T00:55:20;1110.32;;;956.78;;
13368;SDS011;6753;52.520;13.450;2023-01-19T00:55:32;1105.55;;;954.55;;
13368;SDS011;6753;52.520;13.450;2023-01-19T00:55:43;1106.97;;;954.40;;
13368;SDS011;6753;52.520;13.450;2023-01-19T00:55:53;1106.85;;;954.17;;
13368;SDS011;6753;52.520;13.450;2023-01-19T00:56:04;1112.38;;;954.13;;
13368;SDS011;6753;52.520;13.450;2023-01-19T00:56:16;1112.28;;;954.67;;
13368;SDS011;6753;52.520;13.450;2023-01-19T00:56:27;1115.63;;;957.80;;
13368;SDS011;6753;52.520;13.450;2023-01-19T00:56:37;1117.18;;;959.05;;
13368;SDS011;6753;52.520;13.450;2023-01-19T00:56:48;1117.07;;;959.47;;
13368;SDS011;6753;52.520;13.450;2023-01-19T00:56:59;1126.25;;;964.20;;
13368;SDS011;6753;52.520;13.450;2023-01-19T00:57:10;1129.90;;;966.42;;
13368;SDS011;6753;52.520;13.450;2023-01-19T00:57:22;1134.53;;;968.75;;
13368;SDS011;6753;52.520;13.450;2023-01-19T00:57:33;1145.43;;;972.65;;
13368;SDS011;6753;52.520;13.450;2023-01-19T00:57:44;1152.47;;;976.67;;
13368;SDS011;6753;52.520;13.450;2023-01-19T00:57:54;1156.18;;;980.47;;
13368;SDS011;6753;52.520;13.450;2023-01-19T00:58:06;1158.15;;;979.58;;
13368;SDS011;6753;52.520;13.450;2023-01-19T00:58:16;1161.13;;;979.50;;
13368;SDS011;6753;52.520;13.450;2023-01-19T00:58:28;1157.78;;;977.97;;
13368;SDS011;6753;52.520;13.450;2023-01-19T00:58:39;1155.67;;;977.73;;
13368;SDS011;6753;52.520;13.450;2023-01-19T00:58:49;1157.70;;;978.67;;
13368;SDS011;6753;52.520;13.450;2023-01-19T00:59:00;1159.07;;;980.70;;
13368;SDS011;6753;52.520;13.450;2023-01-19T00:59:11;1161.17;;;983.20;;
13368;SDS011;6753;52.520;13.450;2023-01-19T00:59:22;1170.03;;;985.10;;
13368;SDS011;6753;52.520;13.450;2023-01-19T00:59:34;1176.47;;;988.75;;
13368;SDS011;6753;52.520;13.450;2023-01-19T00:59:45;1179.47;;;990.00;;
13368;SDS011;6753;52.520;13.450;2023-01-19T00:59:57;1184.43;;;991.80;;
13368;SDS011;6753;52.520;13.450;2023-01-19T01:00:08;1191.85;;;992.25;;
13368;SDS011;6753;52.520;13.450;2023-01-19T01:00:21;1188.45;;;991.75;;
13368;SDS011;6753;52.520;13.450;2023-01-19T01:00:32;1189.00;;;992.35;;
13368;SDS011;6753;52.520;13.450;2023-01-19T01:00:43;1187.45;;;990.95;;
13368;SDS011;6753;52.520;13.450;2023-01-19T01:00:53;1184.10;;;989.05;;
13368;SDS011;6753;52.520;13.450;2023-01-19T01:01:06;1176.00;;;986.75;;
13368;SDS011;6753;52.520;13.450;2023-01-19T01:01:17;1173.35;;;986.70;;
13368;SDS011;6753;52.520;13.450;2023-01-19T01:01:28;1166.88;;;984.65;;
13368;SDS011;6753;52.520;13.450;2023-01-19T01:01:38;1162.80;;;984.08;;
13368;SDS011;6753;52.520;13.450;2023-01-19T01:01:49;1159.53;;;982.23;;
13368;SDS011;6753;52.520;13.450;2023-01-19T01:02:00;1158.70;;;982.33;;
13368;SDS011;6753;52.520;13.450;2023-01-19T01:02:11;1154.82;;;980.83;;
13368;SDS011;6753;52.520;13.450;2023-01-19T01:02:22;1152.72;;;978.55;;
13368;SDS011;6753;52.520;13.450;2023-01-19T01:02:33;1151.85;;;976.40;;
13368;SDS011;6753;52.520;13.450;2023-01-19T01:02:46;1150.30;;;974.13;;
13368;SDS011;6753;52.520;13.450;2023-01-19T01:02:58;1145.53;;;970.75;;
13368;SDS011;6753;52.520;13.450;2023-01-19T01:03:09;1142.47;;;970.15;;
13368;SDS011;6753;52.520;13.450;2023-01-19T01:03:20;1138.88;;;969.38;;
13368;SDS011;6753;52.520;13.450;2023-01-19T01:03:37;1136.97;;;970.72;;
13368;SDS011;6753;52.520;13.450;2023-01-19T01:03:47;1137.38;;;969.88;;
13368;SDS011;6753;52.520;13.450;2023-01-19T01:03:58;1137.95;;;969.60;;
13368;SDS011;6753;52.520;13.450;2023-01-19T01:04:10;1136.47;;;967.92;;